Time;durP1;ratioP1;P1;durP2;ratioP2;P2;SDS_P1;SDS_P2;PMS_P1;PMS_P2;Temp;Humidity;BMP_temperature;BMP_pressure;BME280_temperature;BME280_humidity;BME280_pressure;Samples;Min_cycle;Max_cycle;Signal;HPM_P1;HPM_P2
2023/06/07 00:01:47;;;;;;;15.63;14.23;;;17.10;99.90;;;;;;2615124;54;20523;-72
2023/06/07 00:07:35;;;;;;;16.30;15.27;;;17.10;99.90;;;;;;2615080;54;20166;-72
2023/06/07 00:13:23;;;;;;;16.00;14.70;;;17.10;99.90;;;;;;2615071;54;20519;-73
2023/06/07 00:19:11;;;;;;;15.63;14.73;;;17.30;99.90;;;;;;2614908;54;20427;-72
2023/06/07 00:25:00;;;;;;;16.37;15.20;;;17.50;99.90;;;;;;2615504;54;20150;-72
2023/06/07 00:30:48;;;;;;;15.30;14.50;;;17.80;99.90;;;;;;2615085;54;20426;-73
2023/06/07 00:36:36;;;;;;;17.63;16.10;;;17.80;99.90;;;;;;2615196;54;20150;-72
2023/06/07 00:39:53;;;;;;;17.67;15.93;;;17.80;99.90;;;;;;2614349;47;20423;-73
2023/06/07 00:42:19;;;;;;;16.50;15.27;;;17.80;99.90;;;;;;2613905;47;20181;-72
2023/06/07 00:48:07;;;;;;;16.63;15.53;;;17.80;99.90;;;;;;2615257;54;20174;-72
2023/06/07 00:53:59;;;;;;;16.07;15.10;;;17.70;99.90;;;;;;2614828;54;20453;-73
2023/06/07 00:59:47;;;;;;;16.70;15.57;;;17.70;99.90;;;;;;2615352;39;20801;-72
2023/06/07 01:05:35;;;;;;;16.57;15.33;;;17.70;99.90;;;;;;2614860;54;20137;-71
2023/06/07 01:11:25;;;;;;;15.67;14.63;;;17.60;99.90;;;;;;2614722;54;20451;-72
2023/06/07 01:17:14;;;;;;;16.00;15.00;;;17.60;99.90;;;;;;2614818;54;20505;-73
2023/06/07 01:23:05;;;;;;;15.70;14.70;;;17.50;99.90;;;;;;2614959;54;20411;-73
2023/06/07 01:28:54;;;;;;;16.07;15.07;;;17.50;99.90;;;;;;2614729;54;20395;-72
2023/06/07 01:34:43;;;;;;;17.70;15.93;;;17.50;99.90;;;;;;2615729;46;20434;-73
2023/06/07 01:50:48;;;;;;;16.83;15.57;;;17.40;99.90;;;;;;2613551;54;20415;-72
2023/06/07 02:09:24;;;;;;;15.60;14.57;;;17.10;99.90;;;;;;2614070;54;20979;-73
2023/06/07 02:15:11;;;;;;;17.27;15.60;;;17.10;99.90;;;;;;2614108;54;20394;-72
2023/06/07 02:20:58;;;;;;;15.77;14.90;;;17.00;99.90;;;;;;2614192;54;20134;-73
2023/06/07 02:26:46;;;;;;;17.43;16.20;;;16.90;99.90;;;;;;2615763;39;20547;-73
2023/06/07 02:32:35;;;;;;;17.93;16.67;;;16.90;99.90;;;;;;2615450;54;20146;-73
2023/06/07 02:38:23;;;;;;;17.13;15.87;;;16.90;99.90;;;;;;2615260;54;20403;-72
2023/06/07 02:44:11;;;;;;;17.33;15.80;;;16.80;99.90;;;;;;2615406;39;20974;-73
2023/06/07 02:50:00;;;;;;;15.97;14.87;;;16.70;99.90;;;;;;2615483;54;20178;-73
2023/06/07 02:55:48;;;;;;;16.33;15.17;;;16.70;99.90;;;;;;2615275;54;20386;-73
2023/06/07 03:01:37;;;;;;;17.10;16.00;;;16.70;99.90;;;;;;2615196;54;20146;-73
2023/06/07 03:07:25;;;;;;;17.23;15.60;;;16.60;99.90;;;;;;2615427;54;20387;-73
2023/06/07 03:13:14;;;;;;;16.53;15.43;;;16.60;99.90;;;;;;2614491;54;20154;-73
2023/06/07 03:19:01;;;;;;;15.60;14.60;;;16.50;99.90;;;;;;2615128;54;20395;-73
2023/06/07 03:24:51;;;;;;;17.77;16.20;;;16.50;99.90;;;;;;2614974;54;20129;-73
2023/06/07 03:30:40;;;;;;;15.43;14.27;;;16.40;99.90;;;;;;2615275;54;20407;-72
2023/06/07 03:36:28;;;;;;;16.13;15.03;;;16.40;99.90;;;;;;2615151;54;21035;-72
2023/06/07 03:39:53;;;;;;;16.70;15.60;;;16.40;99.90;;;;;;2614597;54;20436;-72
2023/06/07 03:42:19;;;;;;;16.43;15.40;;;16.40;99.90;;;;;;2614266;54;20475;-72
2023/06/07 03:48:06;;;;;;;16.87;15.40;;;16.30;99.90;;;;;;2615268;54;20175;-72
2023/06/07 03:53:55;;;;;;;16.70;15.53;;;16.40;99.90;;;;;;2615225;54;20439;-73
2023/06/07 03:59:42;;;;;;;18.50;16.97;;;16.30;99.90;;;;;;2615356;39;20576;-72
2023/06/07 04:05:31;;;;;;;16.67;15.57;;;16.20;99.90;;;;;;2614900;54;20162;-72
2023/06/07 04:11:19;;;;;;;16.67;15.37;;;16.10;99.90;;;;;;2615045;54;20372;-72
2023/06/07 04:17:07;;;;;;;18.37;17.00;;;16.00;99.90;;;;;;2615145;54;20418;-72
2023/06/07 04:22:54;;;;;;;17.23;16.10;;;15.90;99.90;;;;;;2615279;39;20773;-72
2023/06/07 04:28:42;;;;;;;16.57;15.37;;;15.70;99.90;;;;;;2614948;54;20142;-73
2023/06/07 04:34:32;;;;;;;15.80;14.30;;;15.60;99.90;;;;;;2615194;54;20203;-73
2023/06/07 04:44:37;;;;;;;11.93;10.73;;;15.30;99.90;;;;;;2614948;54;21051;-72
2023/06/07 04:50:26;;;;;;;13.10;11.30;;;15.00;99.90;;;;;;2613140;54;20468;-74
2023/06/07 04:56:13;;;;;;;12.30;11.03;;;14.90;99.90;;;;;;2613748;39;20929;-72
2023/06/07 05:05:22;;;;;;;19.57;16.57;;;14.70;99.90;;;;;;2613215;54;20405;-73
2023/06/07 05:11:10;;;;;;;19.53;17.33;;;14.80;99.90;;;;;;2614034;54;20402;-72
2023/06/07 05:14:12;;;;;;;19.60;17.80;;;14.80;99.90;;;;;;2614227;54;21334;-72
2023/06/07 05:16:38;;;;;;;17.90;16.30;;;14.80;99.90;;;;;;2614534;39;20828;-72
2023/06/07 05:22:26;;;;;;;18.83;17.33;;;14.90;99.90;;;;;;2616247;39;20529;-72
2023/06/07 05:28:14;;;;;;;18.40;16.80;;;14.80;99.90;;;;;;2615385;54;20647;-72
2023/06/07 05:34:01;;;;;;;17.63;15.87;;;14.80;99.90;;;;;;2615410;54;20154;-73
2023/06/07 05:39:49;;;;;;;16.20;14.53;;;14.90;99.90;;;;;;2615230;54;20162;-72
2023/06/07 05:45:37;;;;;;;17.50;13.03;;;14.90;99.90;;;;;;2614531;54;20685;-72
2023/06/07 05:51:25;;;;;;;13.70;11.20;;;15.00;99.90;;;;;;2615088;54;20154;-72
2023/06/07 05:57:12;;;;;;;13.10;10.80;;;14.80;99.90;;;;;;2615147;54;20886;-71
2023/06/07 06:03:04;;;;;;;14.13;10.70;;;14.80;99.90;;;;;;2615480;54;20134;-72
2023/06/07 06:08:51;;;;;;;15.50;12.07;;;14.90;99.90;;;;;;2615652;39;20756;-72
2023/06/07 06:14:40;;;;;;;13.93;10.40;;;14.80;99.90;;;;;;2615280;54;20158;-72
2023/06/07 06:17:24;;;;;;;12.63;10.50;;;14.80;99.90;;;;;;2614599;47;20430;-72
2023/06/07 06:19:50;;;;;;;14.90;10.80;;;14.90;99.90;;;;;;2615307;54;20418;-73
2023/06/07 06:25:38;;;;;;;18.00;11.57;;;14.80;99.90;;;;;;2615719;54;20138;-73
2023/06/07 06:31:26;;;;;;;12.97;10.40;;;14.80;99.90;;;;;;2615261;54;20122;-72
2023/06/07 06:37:13;;;;;;;14.17;11.30;;;14.80;99.90;;;;;;2615076;54;20424;-72
2023/06/07 06:39:54;;;;;;;15.07;11.50;;;14.90;99.90;;;;;;2615403;54;20419;-73
2023/06/07 06:42:20;;;;;;;15.37;10.87;;;14.90;99.90;;;;;;2615408;39;20628;-73
2023/06/07 06:48:07;;;;;;;11.83;10.63;;;14.90;99.90;;;;;;2615237;54;20182;-72
2023/06/07 06:53:55;;;;;;;13.33;11.03;;;14.90;99.90;;;;;;2614624;54;20130;-72
2023/06/07 06:59:43;;;;;;;14.03;12.20;;;14.90;99.90;;;;;;2615218;54;20131;-72
2023/06/07 07:05:31;;;;;;;13.47;12.17;;;15.00;99.90;;;;;;2615090;54;20169;-72
2023/06/07 07:11:18;;;;;;;17.13;13.83;;;15.00;99.90;;;;;;2614974;54;20154;-73
2023/06/07 07:17:07;;;;;;;19.20;13.57;;;15.00;99.90;;;;;;2615430;54;20131;-72
2023/06/07 07:22:55;;;;;;;14.20;12.90;;;15.10;99.90;;;;;;2615554;54;20494;-73
2023/06/07 07:28:44;;;;;;;17.70;13.93;;;14.90;99.90;;;;;;2615711;39;20800;-72
2023/06/07 07:34:33;;;;;;;15.47;12.87;;;14.80;99.90;;;;;;2615106;54;20367;-73
2023/06/07 07:44:23;;;;;;;18.03;12.10;;;14.70;99.90;;;;;;2615221;54;20581;-72
2023/06/07 07:50:11;;;;;;;17.17;11.70;;;14.40;99.90;;;;;;2615389;54;20965;-73
2023/06/07 07:56:00;;;;;;;17.03;11.90;;;14.40;99.90;;;;;;2615107;54;20675;-72
2023/06/07 08:01:49;;;;;;;18.13;12.13;;;14.40;99.90;;;;;;2615512;39;20795;-73
2023/06/07 08:07:38;;;;;;;18.37;13.30;;;14.40;99.90;;;;;;2615090;54;20425;-72
2023/06/07 08:13:26;;;;;;;24.60;14.50;;;14.60;99.90;;;;;;2615174;54;20427;-73
2023/06/07 08:19:14;;;;;;;16.93;14.60;;;14.40;99.90;;;;;;2614988;54;20411;-73
2023/06/07 08:25:01;;;;;;;18.13;15.43;;;14.40;99.90;;;;;;2614849;54;20133;-73
2023/06/07 08:30:49;;;;;;;23.27;15.23;;;14.30;99.90;;;;;;2614784;54;20122;-73
2023/06/07 08:36:39;;;;;;;18.27;15.73;;;14.40;99.90;;;;;;2615104;54;20186;-73
2023/06/07 08:39:55;;;;;;;18.63;15.50;;;14.30;99.90;;;;;;2614788;54;20404;-73
2023/06/07 08:42:21;;;;;;;19.40;15.40;;;14.30;99.90;;;;;;2614872;54;20427;-72
2023/06/07 08:48:12;;;;;;;21.53;16.47;;;14.70;99.90;;;;;;2614857;54;20145;-73
2023/06/07 08:54:04;;;;;;;20.50;17.00;;;14.90;99.90;;;;;;2614700;54;20410;-72
2023/06/07 08:59:52;;;;;;;23.50;15.43;;;15.00;99.90;;;;;;2614757;54;20391;-73
2023/06/07 09:05:40;;;;;;;25.73;14.80;;;14.90;99.90;;;;;;2614591;54;20550;-73
2023/06/07 09:11:30;;;;;;;20.43;15.70;;;15.00;99.90;;;;;;2614891;39;20819;-72
2023/06/07 09:17:17;;;;;;;20.03;15.67;;;15.00;99.90;;;;;;2614958;54;20419;-73
2023/06/07 09:23:13;;;;;;;22.13;17.03;;;15.00;99.90;;;;;;2614896;46;20137;-73
2023/06/07 09:29:08;;;;;;;23.33;17.80;;;15.10;99.90;;;;;;2614707;54;20367;-73
2023/06/07 09:51:40;;;;;;;22.10;19.83;;;16.10;99.90;;;;;;2614359;54;20399;-73
2023/06/07 09:57:30;;;;;;;22.13;18.93;;;16.10;99.90;;;;;;2615291;54;20403;-73
2023/06/07 10:03:18;;;;;;;19.97;18.00;;;16.10;99.90;;;;;;2615389;54;20394;-73
2023/06/07 10:09:07;;;;;;;20.50;17.87;;;16.20;99.90;;;;;;2615446;54;20196;-72
2023/06/07 10:14:56;;;;;;;21.80;16.50;;;16.20;99.90;;;;;;2615190;54;20415;-73
2023/06/07 10:20:57;;;;;;;26.13;16.57;;;16.30;99.90;;;;;;2615231;54;20383;-73
2023/06/07 10:33:00;;;;;;;24.77;17.73;;;17.20;99.90;;;;;;2615352;54;20379;-73
2023/06/07 10:38:50;;;;;;;21.67;17.47;;;17.50;99.90;;;;;;2615601;54;20435;-74
2023/06/07 10:48:33;;;;;;;20.57;17.87;;;18.80;99.90;;;;;;2615144;54;20375;-72
2023/06/07 10:54:29;;;;;;;17.73;15.97;;;18.80;99.90;;;;;;2615167;54;20399;-73
2023/06/07 11:00:29;;;;;;;25.87;20.53;;;18.70;99.90;;;;;;2616026;39;20794;-73
2023/06/07 11:06:17;;;;;;;21.27;18.00;;;18.40;99.90;;;;;;2614885;54;20399;-74
2023/06/07 11:12:06;;;;;;;28.57;17.70;;;18.80;99.90;;;;;;2615043;54;20940;-75
2023/06/07 11:18:00;;;;;;;29.87;18.60;;;18.80;99.90;;;;;;2615261;46;20697;-74
2023/06/07 11:34:41;;;;;;;22.00;19.77;;;19.10;99.90;;;;;;2615233;46;20403;-74
2023/06/07 11:40:28;;;;;;;21.83;19.83;;;20.50;99.90;;;;;;2614855;54;20396;-74
2023/06/07 11:43:26;;;;;;;22.03;19.70;;;20.90;99.90;;;;;;2614925;54;20420;-74
2023/06/07 11:45:56;;;;;;;23.00;20.97;;;21.70;99.90;;;;;;2615040;54;20146;-74
2023/06/07 11:57:55;;;;;;;24.80;22.90;;;21.40;99.90;;;;;;2614764;54;20420;-73
2023/06/07 12:03:43;;;;;;;25.33;23.07;;;22.40;99.90;;;;;;2614906;54;20378;-73
2023/06/07 12:16:04;;;;;;;25.20;23.30;;;21.30;99.90;;;;;;2614768;54;20380;-74
2023/06/07 12:21:53;;;;;;;24.83;22.57;;;22.60;99.90;;;;;;2615234;54;20397;-74
2023/06/07 12:27:45;;;;;;;26.57;24.33;;;22.50;99.90;;;;;;2614888;46;20416;-74
2023/06/07 12:33:33;;;;;;;25.67;23.70;;;22.30;99.90;;;;;;2615018;54;20391;-74
2023/06/07 12:45:34;;;;;;;21.57;20.00;;;21.90;99.90;;;;;;2615213;39;20938;-74
2023/06/07 12:51:23;;;;;;;24.07;22.30;;;21.80;99.90;;;;;;2615024;54;20130;-74
2023/06/07 12:57:10;;;;;;;26.37;24.37;;;21.70;99.90;;;;;;2615038;54;21157;-73
2023/06/07 13:02:59;;;;;;;25.20;23.10;;;22.30;99.90;;;;;;2615566;39;20569;-73
2023/06/07 13:08:46;;;;;;;26.03;24.00;;;21.10;99.90;;;;;;2615327;39;20808;-73
2023/06/07 13:14:35;;;;;;;27.00;24.80;;;21.40;99.90;;;;;;2614806;54;20243;-73
2023/06/07 13:20:22;;;;;;;27.30;25.17;;;21.20;99.90;;;;;;2614727;54;20454;-73
2023/06/07 13:26:10;;;;;;;28.00;25.53;;;21.30;99.90;;;;;;2614714;54;20130;-73
2023/06/07 13:31:58;;;;;;;30.10;27.67;;;22.20;99.90;;;;;;2615265;54;20174;-73
2023/06/07 13:37:46;;;;;;;31.33;28.97;;;22.30;99.90;;;;;;2616214;39;20526;-72
2023/06/07 13:50:18;;;;;;;30.87;28.50;;;22.80;99.90;;;;;;2614998;54;20403;-73
2023/06/07 13:56:07;;;;;;;30.10;27.83;;;22.90;99.90;;;;;;2615330;54;20158;-74
2023/06/07 14:01:58;;;;;;;29.50;26.90;;;23.40;99.90;;;;;;2615307;54;20387;-74
2023/06/07 14:07:46;;;;;;;26.17;24.17;;;23.50;99.90;;;;;;2615329;54;20387;-74
2023/06/07 14:13:34;;;;;;;28.77;26.47;;;23.90;99.90;;;;;;2615196;54;20134;-74
2023/06/07 14:19:22;;;;;;;26.67;24.67;;;23.80;99.90;;;;;;2615328;54;20906;-74
2023/06/07 14:25:09;;;;;;;27.90;25.70;;;24.80;92.30;;;;;;2615362;54;20121;-74
2023/06/07 14:30:57;;;;;;;27.40;25.10;;;25.00;83.20;;;;;;2614879;54;20133;-73
2023/06/07 14:36:45;;;;;;;27.67;25.37;;;25.10;75.80;;;;;;2615397;54;20348;-74
2023/06/07 14:42:33;;;;;;;27.10;24.87;;;25.10;74.90;;;;;;2615171;54;20126;-74
2023/06/07 14:48:21;;;;;;;26.03;23.97;;;24.20;91.50;;;;;;2615563;54;20189;-73
2023/06/07 14:51:45;;;;;;;24.27;22.47;;;24.00;91.30;;;;;;2615202;54;20507;-73
2023/06/07 14:57:33;;;;;;;25.47;23.60;;;24.50;91.70;;;;;;2615786;39;20937;-73
2023/06/07 15:03:20;;;;;;;27.43;25.20;;;24.60;82.60;;;;;;2615475;39;20439;-73
2023/06/07 15:09:08;;;;;;;25.20;23.37;;;24.90;87.20;;;;;;2615929;39;20527;-74
2023/06/07 15:14:56;;;;;;;24.77;22.87;;;25.10;70.00;;;;;;2614809;54;20161;-73
2023/06/07 15:20:44;;;;;;;25.53;23.30;;;25.90;63.70;;;;;;2615313;47;20146;-73
2023/06/07 15:26:32;;;;;;;22.23;20.73;;;25.70;59.50;;;;;;2615037;54;20399;-74
2023/06/07 15:32:20;;;;;;;25.30;23.10;;;25.90;60.10;;;;;;2615145;54;20134;-73
2023/06/07 15:38:08;;;;;;;23.90;22.10;;;25.30;51.90;;;;;;2615042;54;20443;-74
2023/06/07 15:43:56;;;;;;;21.80;20.40;;;25.70;55.50;;;;;;2616314;31;20856;-73
2023/06/07 15:49:59;;;;;;;23.40;21.70;;;24.70;65.50;;;;;;2613793;54;20395;-74
2023/06/07 15:55:47;;;;;;;24.97;23.17;;;23.80;83.60;;;;;;2613514;54;20383;-73
2023/06/07 16:01:35;;;;;;;26.17;23.53;;;23.00;99.90;;;;;;2613710;54;20669;-74
2023/06/07 16:07:22;;;;;;;26.90;24.83;;;21.50;99.90;;;;;;2613837;54;20957;-74
2023/06/07 16:13:09;;;;;;;27.17;24.90;;;21.50;99.90;;;;;;2613477;54;20684;-73
2023/06/07 16:18:56;;;;;;;27.00;24.53;;;21.50;99.90;;;;;;2613587;54;20243;-73
2023/06/07 16:24:44;;;;;;;24.90;22.77;;;21.50;99.90;;;;;;2613970;54;20163;-75
2023/06/07 16:30:34;;;;;;;27.50;25.30;;;21.60;99.90;;;;;;2615466;39;20618;-74
2023/06/07 16:36:22;;;;;;;24.73;22.87;;;21.70;99.90;;;;;;2615222;54;20386;-73
2023/06/07 16:42:10;;;;;;;25.13;23.07;;;21.80;99.90;;;;;;2614852;54;20726;-74
2023/06/07 16:51:47;;;;;;;23.33;21.73;;;23.10;99.90;;;;;;2615234;54;20415;-74
2023/06/07 16:57:36;;;;;;;20.40;18.90;;;23.30;99.90;;;;;;2615316;54;20500;-73
2023/06/07 17:03:23;;;;;;;22.63;20.73;;;22.80;99.90;;;;;;2614760;54;20391;-74
2023/06/07 17:09:11;;;;;;;22.30;20.50;;;22.20;99.90;;;;;;2615112;54;20154;-73
2023/06/07 17:14:59;;;;;;;22.27;20.43;;;21.70;99.90;;;;;;2614613;54;20134;-74
2023/06/07 17:20:46;;;;;;;20.30;18.80;;;21.60;99.90;;;;;;2615023;46;20166;-74
2023/06/07 17:26:34;;;;;;;20.07;18.70;;;21.60;99.90;;;;;;2613982;54;20664;-74
2023/06/07 17:32:22;;;;;;;21.10;19.50;;;21.60;99.90;;;;;;2614852;54;20222;-74
2023/06/07 17:38:10;;;;;;;20.47;19.07;;;21.60;99.90;;;;;;2614494;54;20134;-73
2023/06/07 17:43:57;;;;;;;20.03;18.60;;;21.50;99.90;;;;;;2614680;54;20239;-73
2023/06/07 17:47:15;;;;;;;20.07;18.77;;;21.50;99.90;;;;;;2613898;54;20504;-74
2023/06/07 17:49:41;;;;;;;19.70;18.30;;;21.50;99.90;;;;;;2614515;54;20181;-74
2023/06/07 17:55:28;;;;;;;20.53;18.80;;;21.50;99.90;;;;;;2614525;54;20178;-74
2023/06/07 18:01:16;;;;;;;19.40;18.10;;;21.60;99.90;;;;;;2614733;54;20135;-74
2023/06/07 18:07:05;;;;;;;18.77;17.47;;;21.60;99.90;;;;;;2614488;54;20127;-74
2023/06/07 18:12:52;;;;;;;19.40;18.03;;;21.50;99.90;;;;;;2614939;54;20467;-74
2023/06/07 18:18:39;;;;;;;19.20;18.07;;;21.50;99.90;;;;;;2615621;54;20199;-73
2023/06/07 18:24:28;;;;;;;19.70;18.30;;;21.30;99.90;;;;;;2615435;54;20135;-74
2023/06/07 18:30:15;;;;;;;18.60;17.40;;;21.40;99.90;;;;;;2614945;54;20123;-74
2023/06/07 18:36:04;;;;;;;18.53;17.20;;;21.40;99.90;;;;;;2614901;54;20219;-74
2023/06/07 18:41:52;;;;;;;20.30;18.50;;;21.30;99.90;;;;;;2615224;54;20430;-74
2023/06/07 18:51:48;;;;;;;20.23;18.93;;;20.90;99.90;;;;;;2615142;39;20817;-74
2023/06/07 18:57:36;;;;;;;20.60;19.00;;;20.60;99.90;;;;;;2615087;54;20363;-74
2023/06/07 19:03:24;;;;;;;19.33;18.03;;;20.30;99.90;;;;;;2613935;54;20153;-74
2023/06/07 19:09:12;;;;;;;20.27;18.97;;;20.40;99.90;;;;;;2614024;54;20123;-74
2023/06/07 19:14:59;;;;;;;21.70;20.23;;;20.40;99.90;;;;;;2614860;54;20399;-73
2023/06/07 19:20:47;;;;;;;20.60;19.20;;;20.20;99.90;;;;;;2615184;54;20130;-74
2023/06/07 19:26:35;;;;;;;19.23;17.83;;;19.90;99.90;;;;;;2614751;54;20399;-73
2023/06/07 19:32:22;;;;;;;20.70;18.87;;;19.70;99.90;;;;;;2614972;54;20154;-74
2023/06/07 19:38:10;;;;;;;19.97;18.57;;;19.40;99.90;;;;;;2615090;54;20134;-73
2023/06/07 19:40:55;;;;;;;19.20;17.73;;;19.30;99.90;;;;;;2614700;54;20423;-73
2023/06/07 19:43:20;;;;;;;18.00;17.00;;;19.20;99.90;;;;;;2614689;47;20162;-73
2023/06/07 19:52:30;;;;;;;18.73;17.33;;;19.10;99.90;;;;;;2615512;39;20764;-73
2023/06/07 19:58:18;;;;;;;20.17;18.57;;;19.00;99.90;;;;;;2615165;54;20135;-74
2023/06/07 20:04:05;;;;;;;20.47;18.73;;;19.10;99.90;;;;;;2615151;54;20177;-74
2023/06/07 20:09:54;;;;;;;19.10;17.80;;;19.00;99.90;;;;;;2615508;54;20122;-73
2023/06/07 20:15:46;;;;;;;20.17;18.37;;;18.90;99.90;;;;;;2615489;39;20493;-74
2023/06/07 20:21:35;;;;;;;19.47;18.27;;;19.00;99.90;;;;;;2615139;54;20439;-74
2023/06/07 20:27:23;;;;;;;18.33;17.23;;;19.00;99.90;;;;;;2615416;54;20437;-74
2023/06/07 20:33:11;;;;;;;17.90;16.80;;;18.90;99.90;;;;;;2615019;54;20394;-73
2023/06/07 20:38:59;;;;;;;18.43;17.17;;;18.70;99.90;;;;;;2615175;54;20122;-73
2023/06/07 20:44:47;;;;;;;20.83;19.00;;;18.60;99.90;;;;;;2614895;54;20154;-74
2023/06/07 20:48:02;;;;;;;20.20;18.80;;;18.50;99.90;;;;;;2614568;39;20804;-74
2023/06/07 20:50:28;;;;;;;20.17;19.00;;;18.60;99.90;;;;;;2614877;54;20154;-74
2023/06/07 20:56:16;;;;;;;20.13;18.73;;;18.40;99.90;;;;;;2615735;54;20192;-74
2023/06/07 21:02:04;;;;;;;20.00;18.33;;;18.30;99.90;;;;;;2614620;54;20538;-74
2023/06/07 21:07:52;;;;;;;19.47;18.27;;;18.30;99.90;;;;;;2614855;54;20391;-74
2023/06/07 21:13:40;;;;;;;19.40;18.10;;;18.20;99.90;;;;;;2614913;46;20242;-73
2023/06/07 21:19:27;;;;;;;20.00;18.60;;;18.30;99.90;;;;;;2615225;54;20154;-75
2023/06/07 21:25:15;;;;;;;20.63;19.00;;;18.20;99.90;;;;;;2614862;54;20138;-74
2023/06/07 21:31:02;;;;;;;20.57;19.07;;;18.20;99.90;;;;;;2614643;54;20147;-74
2023/06/07 21:36:50;;;;;;;18.40;17.30;;;18.10;99.90;;;;;;2614543;54;20130;-73
2023/06/07 21:42:38;;;;;;;20.63;18.93;;;18.20;99.90;;;;;;2614586;54;20843;-74
2023/06/07 21:52:35;;;;;;;20.33;19.13;;;18.30;99.90;;;;;;2615303;54;20395;-73
2023/06/07 21:58:23;;;;;;;20.13;18.63;;;18.30;99.90;;;;;;2615713;54;20391;-74
2023/06/07 22:04:10;;;;;;;18.60;17.30;;;18.20;99.90;;;;;;2615114;46;20185;-73
2023/06/07 22:09:59;;;;;;;21.37;20.00;;;18.10;99.90;;;;;;2615761;39;20478;-73
2023/06/07 22:15:52;;;;;;;19.57;18.37;;;18.10;99.90;;;;;;2615244;54;20499;-74
2023/06/07 22:21:40;;;;;;;20.73;19.33;;;18.10;99.90;;;;;;2615289;54;20882;-74
2023/06/07 22:27:28;;;;;;;19.60;18.30;;;18.10;99.90;;;;;;2615026;54;20395;-73
2023/06/07 22:33:16;;;;;;;20.83;19.33;;;18.30;99.90;;;;;;2615217;54;20434;-74
2023/06/07 22:39:07;;;;;;;20.37;18.93;;;18.40;99.90;;;;;;2615228;54;20162;-74
2023/06/07 22:44:55;;;;;;;19.77;17.97;;;18.30;99.90;;;;;;2614903;54;20383;-74
2023/06/07 22:48:00;;;;;;;19.70;18.30;;;18.40;99.90;;;;;;2615317;54;20412;-74
2023/06/07 22:50:26;;;;;;;20.60;18.90;;;18.40;99.90;;;;;;2614544;47;20181;-74
2023/06/07 22:56:14;;;;;;;18.90;17.60;;;18.50;99.90;;;;;;2615096;54;20654;-74
2023/06/07 23:02:02;;;;;;;18.73;17.53;;;18.60;99.90;;;;;;2615155;54;20415;-74
2023/06/07 23:07:50;;;;;;;20.20;18.50;;;18.60;99.90;;;;;;2614812;46;20146;-73
2023/06/07 23:13:38;;;;;;;19.60;18.20;;;18.50;99.90;;;;;;2615595;54;20118;-74
2023/06/07 23:19:26;;;;;;;18.93;17.80;;;18.30;99.90;;;;;;2615458;54;20254;-73
2023/06/07 23:25:14;;;;;;;19.07;17.73;;;18.30;99.90;;;;;;2615174;54;20457;-74
2023/06/07 23:31:02;;;;;;;19.50;18.00;;;18.20;99.90;;;;;;2615221;54;20130;-73
2023/06/07 23:36:50;;;;;;;19.93;18.10;;;18.10;99.90;;;;;;2615108;54;20414;-73
2023/06/07 23:42:38;;;;;;;18.83;17.53;;;18.10;99.90;;;;;;2614941;54;20239;-73
2023/06/07 23:52:32;;;;;;;18.47;16.97;;;18.00;99.90;;;;;;2615143;54;20379;-74
2023/06/07 23:58:20;;;;;;;18.70;16.90;;;18.00;99.90;;;;;;2615017;54;20407;-73
